sensor_id;sensor_type;location;lat;lon;timestamp;pressure;altitude;pressure_sealevel;temperature;humidity
8653;BME280;4364;52.426;9.424;2023-04-06T00:00:08;101464.53;;;0.66;73.56
8653;BME280;4364;52.426;9.424;2023-04-06T00:02:36;101458.91;;;0.61;73.17
8653;BME280;4364;52.426;9.424;2023-04-06T00:05:03;101466.94;;;0.61;73.63
8653;BME280;4364;52.426;9.424;2023-04-06T00:07:29;101459.88;;;0.53;73.59
8653;BME280;4364;52.426;9.424;2023-04-06T00:09:56;101457.66;;;0.57;73.63
8653;BME280;4364;52.426;9.424;2023-04-06T00:12:23;101451.22;;;0.51;73.29
8653;BME280;4364;52.426;9.424;2023-04-06T00:14:49;101445.16;;;0.43;74.32
8653;BME280;4364;52.426;9.424;2023-04-06T00:17:17;101450.31;;;0.44;74.26
8653;BME280;4364;52.426;9.424;2023-04-06T00:19:44;101454.19;;;0.42;74.31
8653;BME280;4364;52.426;9.424;2023-04-06T00:22:10;101451.78;;;0.47;74.27
8653;BME280;4364;52.426;9.424;2023-04-06T00:24:37;101449.03;;;0.40;74.81
8653;BME280;4364;52.426;9.424;2023-04-06T00:27:03;101452.94;;;0.38;74.66
8653;BME280;4364;52.426;9.424;2023-04-06T00:29:30;101458.53;;;0.43;74.96
8653;BME280;4364;52.426;9.424;2023-04-06T00:31:56;101453.13;;;0.36;74.87
8653;BME280;4364;52.426;9.424;2023-04-06T00:34:23;101447.47;;;0.46;75.01
8653;BME280;4364;52.426;9.424;2023-04-06T00:36:49;101446.72;;;0.52;74.84
8653;BME280;4364;52.426;9.424;2023-04-06T00:39:16;101433.88;;;0.47;74.32
8653;BME280;4364;52.426;9.424;2023-04-06T00:41:49;101439.00;;;0.42;74.13
8653;BME280;4364;52.426;9.424;2023-04-06T00:44:17;101440.31;;;0.31;73.94
8653;BME280;4364;52.426;9.424;2023-04-06T00:46:43;101438.69;;;0.30;74.26
8653;BME280;4364;52.426;9.424;2023-04-06T00:49:10;101433.88;;;0.26;74.16
8653;BME280;4364;52.426;9.424;2023-04-06T00:51:37;101431.41;;;0.24;74.56
8653;BME280;4364;52.426;9.424;2023-04-06T00:54:04;101421.91;;;0.22;74.45
8653;BME280;4364;52.426;9.424;2023-04-06T00:56:35;101420.25;;;0.21;74.96
8653;BME280;4364;52.426;9.424;2023-04-06T00:59:02;101423.75;;;0.21;75.05
8653;BME280;4364;52.426;9.424;2023-04-06T01:01:29;101420.06;;;0.22;75.50
8653;BME280;4364;52.426;9.424;2023-04-06T01:04:03;101416.94;;;0.18;75.32
8653;BME280;4364;52.426;9.424;2023-04-06T01:06:36;101412.53;;;0.11;75.33
8653;BME280;4364;52.426;9.424;2023-04-06T01:09:03;101419.16;;;0.15;75.79
8653;BME280;4364;52.426;9.424;2023-04-06T01:11:29;101407.38;;;0.09;75.63
8653;BME280;4364;52.426;9.424;2023-04-06T01:13:58;101410.72;;;-0.04;76.37
8653;BME280;4364;52.426;9.424;2023-04-06T01:16:48;101405.38;;;-0.04;76.74
8653;BME280;4364;52.426;9.424;2023-04-06T01:19:18;101405.19;;;-0.02;76.46
8653;BME280;4364;52.426;9.424;2023-04-06T01:21:48;101402.91;;;-0.05;76.82
8653;BME280;4364;52.426;9.424;2023-04-06T01:24:40;101403.88;;;-0.13;77.11
8653;BME280;4364;52.426;9.424;2023-04-06T01:27:22;101403.69;;;-0.11;77.29
8653;BME280;4364;52.426;9.424;2023-04-06T01:30:11;101404.41;;;-0.17;77.38
8653;BME280;4364;52.426;9.424;2023-04-06T01:32:54;101399.44;;;-0.21;77.67
8653;BME280;4364;52.426;9.424;2023-04-06T01:35:33;101405.13;;;-0.09;77.71
8653;BME280;4364;52.426;9.424;2023-04-06T01:38:10;101400.56;;;-0.15;77.54
8653;BME280;4364;52.426;9.424;2023-04-06T01:40:37;101407.44;;;-0.06;77.66
8653;BME280;4364;52.426;9.424;2023-04-06T01:43:04;101397.38;;;-0.04;77.39
8653;BME280;4364;52.426;9.424;2023-04-06T01:45:43;101401.31;;;-0.21;77.73
8653;BME280;4364;52.426;9.424;2023-04-06T01:48:15;101401.78;;;-0.32;77.56
8653;BME280;4364;52.426;9.424;2023-04-06T01:50:41;101394.31;;;-0.37;78.13
8653;BME280;4364;52.426;9.424;2023-04-06T01:53:10;101395.63;;;-0.33;77.89
8653;BME280;4364;52.426;9.424;2023-04-06T01:55:39;101400.88;;;-0.40;78.25
8653;BME280;4364;52.426;9.424;2023-04-06T01:58:44;101397.94;;;-0.45;77.56
8653;BME280;4364;52.426;9.424;2023-04-06T02:01:14;101387.81;;;-0.49;77.85
8653;BME280;4364;52.426;9.424;2023-04-06T02:03:50;101383.47;;;-0.50;77.84
8653;BME280;4364;52.426;9.424;2023-04-06T02:06:17;101382.34;;;-0.41;77.73
8653;BME280;4364;52.426;9.424;2023-04-06T02:08:43;101387.25;;;-0.45;77.42
8653;BME280;4364;52.426;9.424;2023-04-06T02:11:10;101386.81;;;-0.48;77.65
8653;BME280;4364;52.426;9.424;2023-04-06T02:13:42;101379.53;;;-0.54;77.85
8653;BME280;4364;52.426;9.424;2023-04-06T02:16:10;101384.22;;;-0.57;77.88
8653;BME280;4364;52.426;9.424;2023-04-06T02:18:37;101379.25;;;-0.60;78.00
8653;BME280;4364;52.426;9.424;2023-04-06T02:21:03;101378.22;;;-0.59;77.58
8653;BME280;4364;52.426;9.424;2023-04-06T02:23:30;101380.06;;;-0.59;77.58
8653;BME280;4364;52.426;9.424;2023-04-06T02:25:56;101374.91;;;-0.61;77.60
8653;BME280;4364;52.426;9.424;2023-04-06T02:28:23;101370.97;;;-0.65;77.77
8653;BME280;4364;52.426;9.424;2023-04-06T02:30:49;101369.31;;;-0.66;78.02
8653;BME280;4364;52.426;9.424;2023-04-06T02:33:17;101368.66;;;-0.68;78.28
8653;BME280;4364;52.426;9.424;2023-04-06T02:35:45;101363.97;;;-0.66;78.49
8653;BME280;4364;52.426;9.424;2023-04-06T02:38:12;101364.16;;;-0.67;78.33
8653;BME280;4364;52.426;9.424;2023-04-06T02:40:38;101362.31;;;-0.67;78.94
8653;BME280;4364;52.426;9.424;2023-04-06T02:43:19;101360.22;;;-0.71;78.73
8653;BME280;4364;52.426;9.424;2023-04-06T02:45:48;101354.78;;;-0.78;78.89
8653;BME280;4364;52.426;9.424;2023-04-06T02:48:15;101358.53;;;-0.72;79.06
8653;BME280;4364;52.426;9.424;2023-04-06T02:50:41;101360.66;;;-0.68;78.78
8653;BME280;4364;52.426;9.424;2023-04-06T02:53:08;101358.34;;;-0.71;79.29
8653;BME280;4364;52.426;9.424;2023-04-06T02:55:36;101349.88;;;-0.75;79.20
8653;BME280;4364;52.426;9.424;2023-04-06T02:58:03;101359.19;;;-0.85;79.34
8653;BME280;4364;52.426;9.424;2023-04-06T03:00:37;101352.56;;;-0.89;79.54
8653;BME280;4364;52.426;9.424;2023-04-06T03:03:04;101353.31;;;-0.96;79.64
8653;BME280;4364;52.426;9.424;2023-04-06T03:05:31;101349.19;;;-0.98;79.81
8653;BME280;4364;52.426;9.424;2023-04-06T03:07:57;101348.72;;;-0.87;79.48
8653;BME280;4364;52.426;9.424;2023-04-06T03:10:34;101345.09;;;-0.79;78.54
8653;BME280;4364;52.426;9.424;2023-04-06T03:13:01;101338.66;;;-0.85;79.08
8653;BME280;4364;52.426;9.424;2023-04-06T03:15:41;101344.66;;;-0.98;79.28
8653;BME280;4364;52.426;9.424;2023-04-06T03:18:13;101345.88;;;-1.00;79.60
8653;BME280;4364;52.426;9.424;2023-04-06T03:20:44;101344.00;;;-1.00;79.89
8653;BME280;4364;52.426;9.424;2023-04-06T03:23:13;101342.81;;;-0.97;79.57
8653;BME280;4364;52.426;9.424;2023-04-06T03:25:41;101343.84;;;-0.98;79.93
8653;BME280;4364;52.426;9.424;2023-04-06T03:28:12;101339.69;;;-1.01;80.27
8653;BME280;4364;52.426;9.424;2023-04-06T03:30:48;101341.63;;;-1.09;80.43
8653;BME280;4364;52.426;9.424;2023-04-06T03:33:20;101336.19;;;-1.16;81.08
8653;BME280;4364;52.426;9.424;2023-04-06T03:35:53;101343.38;;;-1.17;81.41
8653;BME280;4364;52.426;9.424;2023-04-06T03:38:22;101336.72;;;-1.21;81.44
8653;BME280;4364;52.426;9.424;2023-04-06T03:40:49;101338.41;;;-1.20;81.32
8653;BME280;4364;52.426;9.424;2023-04-06T03:43:20;101337.19;;;-1.17;81.10
8653;BME280;4364;52.426;9.424;2023-04-06T03:45:47;101332.50;;;-1.15;81.06
8653;BME280;4364;52.426;9.424;2023-04-06T03:48:14;101340.63;;;-1.08;81.06
8653;BME280;4364;52.426;9.424;2023-04-06T03:50:41;101345.97;;;-1.08;81.00
8653;BME280;4364;52.426;9.424;2023-04-06T03:53:08;101349.72;;;-1.03;80.66
8653;BME280;4364;52.426;9.424;2023-04-06T03:55:35;101344.00;;;-1.00;80.67
8653;BME280;4364;52.426;9.424;2023-04-06T03:58:01;101344.75;;;-1.06;80.58
8653;BME280;4364;52.426;9.424;2023-04-06T04:00:28;101341.72;;;-1.03;80.08
8653;BME280;4364;52.426;9.424;2023-04-06T04:02:55;101346.13;;;-1.10;80.77
8653;BME280;4364;52.426;9.424;2023-04-06T04:05:22;101340.34;;;-1.14;80.83
8653;BME280;4364;52.426;9.424;2023-04-06T04:07:52;101342.16;;;-1.14;80.79
8653;BME280;4364;52.426;9.424;2023-04-06T04:10:22;101346.50;;;-1.13;81.08
8653;BME280;4364;52.426;9.424;2023-04-06T04:12:48;101342.81;;;-1.12;80.83
8653;BME280;4364;52.426;9.424;2023-04-06T04:15:15;101351.66;;;-1.12;80.73
8653;BME280;4364;52.426;9.424;2023-04-06T04:17:41;101349.00;;;-1.12;80.88
8653;BME280;4364;52.426;9.424;2023-04-06T04:20:13;101346.69;;;-1.15;80.81
8653;BME280;4364;52.426;9.424;2023-04-06T04:22:40;101354.69;;;-1.15;81.01
8653;BME280;4364;52.426;9.424;2023-04-06T04:25:07;101353.59;;;-1.20;80.91
8653;BME280;4364;52.426;9.424;2023-04-06T04:27:39;101358.34;;;-1.16;81.51
8653;BME280;4364;52.426;9.424;2023-04-06T04:30:06;101353.03;;;-1.16;81.34
8653;BME280;4364;52.426;9.424;2023-04-06T04:32:33;101353.03;;;-1.16;81.31
8653;BME280;4364;52.426;9.424;2023-04-06T04:35:03;101352.56;;;-1.19;81.50
8653;BME280;4364;52.426;9.424;2023-04-06T04:37:36;101340.72;;;-1.17;81.05
8653;BME280;4364;52.426;9.424;2023-04-06T04:40:04;101354.31;;;-1.12;80.76
8653;BME280;4364;52.426;9.424;2023-04-06T04:42:42;101352.47;;;-1.11;80.51
8653;BME280;4364;52.426;9.424;2023-04-06T04:45:14;101343.75;;;-1.20;80.75
8653;BME280;4364;52.426;9.424;2023-04-06T04:47:41;101348.53;;;-1.15;80.68
8653;BME280;4364;52.426;9.424;2023-04-06T04:50:09;101343.75;;;-1.20;80.90
8653;BME280;4364;52.426;9.424;2023-04-06T04:52:39;101347.59;;;-1.22;80.75
8653;BME280;4364;52.426;9.424;2023-04-06T04:55:13;101341.44;;;-1.23;80.76
8653;BME280;4364;52.426;9.424;2023-04-06T04:57:43;101350.94;;;-1.20;80.48
8653;BME280;4364;52.426;9.424;2023-04-06T05:00:11;101345.19;;;-1.17;80.89
8653;BME280;4364;52.426;9.424;2023-04-06T05:02:41;101342.97;;;-0.69;77.45
8653;BME280;4364;52.426;9.424;2023-04-06T05:05:25;101346.59;;;-0.77;76.92
8653;BME280;4364;52.426;9.424;2023-04-06T05:07:52;101337.63;;;-0.84;77.10
8653;BME280;4364;52.426;9.424;2023-04-06T05:10:28;101337.38;;;-0.89;77.33
8653;BME280;4364;52.426;9.424;2023-04-06T05:12:59;101335.72;;;-0.90;77.80
8653;BME280;4364;52.426;9.424;2023-04-06T05:15:26;101341.16;;;-0.98;77.86
8653;BME280;4364;52.426;9.424;2023-04-06T05:18:00;101349.34;;;-1.00;78.34
8653;BME280;4364;52.426;9.424;2023-04-06T05:20:31;101336.56;;;-0.89;78.07
8653;BME280;4364;52.426;9.424;2023-04-06T05:22:58;101339.94;;;-0.81;77.36
8653;BME280;4364;52.426;9.424;2023-04-06T05:25:24;101342.63;;;-0.81;77.35
8653;BME280;4364;52.426;9.424;2023-04-06T05:27:54;101340.13;;;-0.82;77.09
8653;BME280;4364;52.426;9.424;2023-04-06T05:30:30;101337.28;;;-0.81;76.72
8653;BME280;4364;52.426;9.424;2023-04-06T05:32:58;101341.59;;;-0.80;77.03
8653;BME280;4364;52.426;9.424;2023-04-06T05:35:30;101334.50;;;-0.72;77.37
8653;BME280;4364;52.426;9.424;2023-04-06T05:38:02;101334.13;;;-0.69;77.56
8653;BME280;4364;52.426;9.424;2023-04-06T05:40:31;101347.19;;;-0.60;77.34
8653;BME280;4364;52.426;9.424;2023-04-06T05:43:03;101340.91;;;-0.52;77.29
8653;BME280;4364;52.426;9.424;2023-04-06T05:45:33;101342.47;;;-0.43;77.19
8653;BME280;4364;52.426;9.424;2023-04-06T05:48:04;101343.16;;;-0.34;76.78
8653;BME280;4364;52.426;9.424;2023-04-06T05:50:34;101340.69;;;-0.14;76.15
8653;BME280;4364;52.426;9.424;2023-04-06T05:53:02;101341.22;;;-0.04;75.25
8653;BME280;4364;52.426;9.424;2023-04-06T05:55:37;101336.91;;;-0.05;74.94
8653;BME280;4364;52.426;9.424;2023-04-06T05:58:14;101334.84;;;-0.03;75.28
8653;BME280;4364;52.426;9.424;2023-04-06T06:01:01;101340.91;;;0.06;75.12
8653;BME280;4364;52.426;9.424;2023-04-06T06:03:39;101336.84;;;0.10;74.86
8653;BME280;4364;52.426;9.424;2023-04-06T06:06:07;101346.56;;;0.18;74.67
8653;BME280;4364;52.426;9.424;2023-04-06T06:09:04;101340.63;;;0.44;73.57
8653;BME280;4364;52.426;9.424;2023-04-06T06:11:37;101331.34;;;0.47;73.18
8653;BME280;4364;52.426;9.424;2023-04-06T06:14:06;101339.78;;;0.72;71.84
8653;BME280;4364;52.426;9.424;2023-04-06T06:16:39;101336.59;;;0.90;70.75
8653;BME280;4364;52.426;9.424;2023-04-06T06:19:12;101336.59;;;0.90;70.86
8653;BME280;4364;52.426;9.424;2023-04-06T06:21:40;101331.06;;;0.98;70.51
8653;BME280;4364;52.426;9.424;2023-04-06T06:24:07;101324.84;;;1.33;68.69
8653;BME280;4364;52.426;9.424;2023-04-06T06:26:37;101333.09;;;1.31;68.54
8653;BME280;4364;52.426;9.424;2023-04-06T06:29:12;101335.22;;;1.42;68.33
8653;BME280;4364;52.426;9.424;2023-04-06T06:31:42;101337.09;;;1.62;67.58
8653;BME280;4364;52.426;9.424;2023-04-06T06:34:12;101335.22;;;1.49;68.60
8653;BME280;4364;52.426;9.424;2023-04-06T06:36:41;101328.72;;;1.85;66.55
8653;BME280;4364;52.426;9.424;2023-04-06T06:39:17;101336.75;;;1.92;66.20
8653;BME280;4364;52.426;9.424;2023-04-06T06:41:52;101328.09;;;1.83;67.01
8653;BME280;4364;52.426;9.424;2023-04-06T06:44:45;101330.19;;;2.01;66.33
8653;BME280;4364;52.426;9.424;2023-04-06T06:47:19;101333.72;;;2.28;64.77
8653;BME280;4364;52.426;9.424;2023-04-06T06:49:47;101325.03;;;2.46;63.56
8653;BME280;4364;52.426;9.424;2023-04-06T06:52:14;101332.03;;;2.54;63.78
8653;BME280;4364;52.426;9.424;2023-04-06T06:54:44;101327.72;;;2.66;63.48
8653;BME280;4364;52.426;9.424;2023-04-06T06:57:10;101333.28;;;2.65;63.25
8653;BME280;4364;52.426;9.424;2023-04-06T06:59:37;101335.13;;;2.77;62.94
8653;BME280;4364;52.426;9.424;2023-04-06T07:02:04;101338.84;;;2.76;63.09
8653;BME280;4364;52.426;9.424;2023-04-06T07:04:31;101334.22;;;3.04;62.54
8653;BME280;4364;52.426;9.424;2023-04-06T07:06:58;101338.13;;;3.21;61.67
8653;BME280;4364;52.426;9.424;2023-04-06T07:09:24;101334.19;;;3.17;61.69
8653;BME280;4364;52.426;9.424;2023-04-06T07:11:52;101336.09;;;3.03;62.17
8653;BME280;4364;52.426;9.424;2023-04-06T07:14:19;101327.78;;;3.18;61.59
8653;BME280;4364;52.426;9.424;2023-04-06T07:16:45;101327.94;;;3.30;61.29
8653;BME280;4364;52.426;9.424;2023-04-06T07:19:14;101328.28;;;3.47;60.68
8653;BME280;4364;52.426;9.424;2023-04-06T07:21:40;101325.03;;;3.38;61.11
8653;BME280;4364;52.426;9.424;2023-04-06T07:24:07;101328.50;;;3.45;61.12
8653;BME280;4364;52.426;9.424;2023-04-06T07:26:35;101339.84;;;3.47;60.58
8653;BME280;4364;52.426;9.424;2023-04-06T07:29:04;101328.84;;;3.56;60.17
8653;BME280;4364;52.426;9.424;2023-04-06T07:31:31;101335.00;;;3.69;59.53
8653;BME280;4364;52.426;9.424;2023-04-06T07:33:58;101330.41;;;3.77;58.73
8653;BME280;4364;52.426;9.424;2023-04-06T07:36:24;101324.81;;;3.78;58.53
8653;BME280;4364;52.426;9.424;2023-04-06T07:38:51;101324.78;;;3.85;59.17
8653;BME280;4364;52.426;9.424;2023-04-06T07:41:18;101328.06;;;3.87;59.47
8653;BME280;4364;52.426;9.424;2023-04-06T07:43:45;101322.94;;;4.11;58.79
8653;BME280;4364;52.426;9.424;2023-04-06T07:46:11;101321.47;;;4.15;58.50
8653;BME280;4364;52.426;9.424;2023-04-06T07:48:38;101325.41;;;4.37;58.53
8653;BME280;4364;52.426;9.424;2023-04-06T07:51:05;101323.53;;;4.63;57.03
8653;BME280;4364;52.426;9.424;2023-04-06T07:53:36;101323.16;;;4.59;57.31
8653;BME280;4364;52.426;9.424;2023-04-06T07:56:03;101326.44;;;4.61;57.88
8653;BME280;4364;52.426;9.424;2023-04-06T07:58:30;101333.47;;;4.62;57.76
8653;BME280;4364;52.426;9.424;2023-04-06T08:00:56;101328.72;;;4.64;57.85
8653;BME280;4364;52.426;9.424;2023-04-06T08:03:24;101321.16;;;4.73;58.43
8653;BME280;4364;52.426;9.424;2023-04-06T08:05:52;101314.75;;;4.93;57.95
8653;BME280;4364;52.426;9.424;2023-04-06T08:08:19;101321.09;;;4.98;58.55
8653;BME280;4364;52.426;9.424;2023-04-06T08:10:48;101324.47;;;5.12;57.91
8653;BME280;4364;52.426;9.424;2023-04-06T08:13:14;101320.91;;;5.49;56.94
8653;BME280;4364;52.426;9.424;2023-04-06T08:15:42;101318.94;;;5.56;56.79
8653;BME280;4364;52.426;9.424;2023-04-06T08:18:09;101323.16;;;5.52;57.16
8653;BME280;4364;52.426;9.424;2023-04-06T08:20:35;101317.28;;;5.85;55.45
8653;BME280;4364;52.426;9.424;2023-04-06T08:23:02;101318.75;;;6.00;54.65
8653;BME280;4364;52.426;9.424;2023-04-06T08:25:29;101317.28;;;6.16;54.42
8653;BME280;4364;52.426;9.424;2023-04-06T08:27:55;101320.44;;;6.12;54.96
8653;BME280;4364;52.426;9.424;2023-04-06T08:30:22;101322.69;;;6.16;54.87
8653;BME280;4364;52.426;9.424;2023-04-06T08:32:48;101322.59;;;6.34;53.94
8653;BME280;4364;52.426;9.424;2023-04-06T08:35:15;101317.19;;;6.58;53.70
8653;BME280;4364;52.426;9.424;2023-04-06T08:37:41;101312.38;;;6.48;54.09
8653;BME280;4364;52.426;9.424;2023-04-06T08:40:08;101313.56;;;6.52;54.31
8653;BME280;4364;52.426;9.424;2023-04-06T08:42:39;101308.72;;;6.66;53.00
8653;BME280;4364;52.426;9.424;2023-04-06T08:45:08;101304.84;;;6.74;50.59
8653;BME280;4364;52.426;9.424;2023-04-06T08:47:36;101308.69;;;6.90;50.74
8653;BME280;4364;52.426;9.424;2023-04-06T08:50:04;101314.69;;;7.03;49.51
8653;BME280;4364;52.426;9.424;2023-04-06T08:52:32;101308.31;;;7.10;50.02
8653;BME280;4364;52.426;9.424;2023-04-06T08:55:00;101309.22;;;7.27;49.48
8653;BME280;4364;52.426;9.424;2023-04-06T08:57:26;101300.50;;;7.37;49.67
8653;BME280;4364;52.426;9.424;2023-04-06T08:59:54;101301.22;;;7.32;50.14
8653;BME280;4364;52.426;9.424;2023-04-06T09:02:22;101300.78;;;7.52;49.48
8653;BME280;4364;52.426;9.424;2023-04-06T09:04:52;101303.63;;;7.74;49.51
8653;BME280;4364;52.426;9.424;2023-04-06T09:07:19;101303.31;;;7.88;48.76
8653;BME280;4364;52.426;9.424;2023-04-06T09:09:46;101298.97;;;7.87;46.66
8653;BME280;4364;52.426;9.424;2023-04-06T09:12:28;101301.63;;;8.15;48.09
8653;BME280;4364;52.426;9.424;2023-04-06T09:14:56;101307.03;;;8.32;47.08
8653;BME280;4364;52.426;9.424;2023-04-06T09:17:25;101298.81;;;8.61;42.08
8653;BME280;4364;52.426;9.424;2023-04-06T09:19:53;101305.59;;;8.59;43.60
8653;BME280;4364;52.426;9.424;2023-04-06T09:22:20;101297.66;;;8.74;42.10
8653;BME280;4364;52.426;9.424;2023-04-06T09:24:50;101300.38;;;8.74;42.32
8653;BME280;4364;52.426;9.424;2023-04-06T09:27:18;101298.13;;;8.88;42.66
8653;BME280;4364;52.426;9.424;2023-04-06T09:29:44;101292.31;;;9.01;40.89
8653;BME280;4364;52.426;9.424;2023-04-06T09:32:11;101291.06;;;9.09;40.93
8653;BME280;4364;52.426;9.424;2023-04-06T09:34:38;101289.72;;;9.12;41.93
8653;BME280;4364;52.426;9.424;2023-04-06T09:37:18;101295.22;;;9.17;41.39
8653;BME280;4364;52.426;9.424;2023-04-06T09:39:45;101288.03;;;9.27;42.12
8653;BME280;4364;52.426;9.424;2023-04-06T09:42:23;101282.88;;;9.53;41.04
8653;BME280;4364;52.426;9.424;2023-04-06T09:44:51;101284.31;;;9.61;42.10
8653;BME280;4364;52.426;9.424;2023-04-06T09:47:17;101285.78;;;9.74;41.20
8653;BME280;4364;52.426;9.424;2023-04-06T09:49:47;101281.06;;;9.91;41.02
8653;BME280;4364;52.426;9.424;2023-04-06T09:52:14;101268.34;;;9.97;41.28
8653;BME280;4364;52.426;9.424;2023-04-06T09:54:42;101274.91;;;10.01;40.89
8653;BME280;4364;52.426;9.424;2023-04-06T09:57:28;101270.63;;;10.10;42.30
8653;BME280;4364;52.426;9.424;2023-04-06T10:00:07;101276.97;;;10.21;39.39
8653;BME280;4364;52.426;9.424;2023-04-06T10:02:59;101279.56;;;10.38;38.58
8653;BME280;4364;52.426;9.424;2023-04-06T10:05:46;101280.22;;;10.55;37.77
8653;BME280;4364;52.426;9.424;2023-04-06T10:08:16;101274.50;;;10.52;38.50
8653;BME280;4364;52.426;9.424;2023-04-06T10:10:44;101279.75;;;10.69;37.76
8653;BME280;4364;52.426;9.424;2023-04-06T10:13:11;101277.78;;;10.59;37.07
8653;BME280;4364;52.426;9.424;2023-04-06T10:15:38;101276.19;;;10.63;38.21
8653;BME280;4364;52.426;9.424;2023-04-06T10:18:32;101275.50;;;10.83;37.63
8653;BME280;4364;52.426;9.424;2023-04-06T10:21:07;101273.59;;;10.89;35.75
8653;BME280;4364;52.426;9.424;2023-04-06T10:23:37;101277.19;;;10.94;36.68
8653;BME280;4364;52.426;9.424;2023-04-06T10:26:12;101270.44;;;11.12;36.83
8653;BME280;4364;52.426;9.424;2023-04-06T10:28:41;101273.09;;;10.97;34.73
8653;BME280;4364;52.426;9.424;2023-04-06T10:31:08;101280.53;;;11.17;35.88
8653;BME280;4364;52.426;9.424;2023-04-06T10:33:35;101281.41;;;11.28;34.94
8653;BME280;4364;52.426;9.424;2023-04-06T10:36:15;101267.78;;;11.33;35.33
8653;BME280;4364;52.426;9.424;2023-04-06T10:38:53;101267.25;;;11.31;34.18
8653;BME280;4364;52.426;9.424;2023-04-06T10:41:21;101259.66;;;11.59;34.76
8653;BME280;4364;52.426;9.424;2023-04-06T10:43:55;101270.53;;;11.48;34.95
8653;BME280;4364;52.426;9.424;2023-04-06T10:46:27;101274.66;;;11.51;33.37
8653;BME280;4364;52.426;9.424;2023-04-06T10:48:54;101267.84;;;11.59;34.76
8653;BME280;4364;52.426;9.424;2023-04-06T10:51:26;101265.13;;;11.64;35.41
8653;BME280;4364;52.426;9.424;2023-04-06T10:53:57;101266.50;;;11.66;34.53
8653;BME280;4364;52.426;9.424;2023-04-06T10:56:24;101265.69;;;11.86;33.11
8653;BME280;4364;52.426;9.424;2023-04-06T10:58:54;101259.19;;;12.03;32.56
8653;BME280;4364;52.426;9.424;2023-04-06T11:01:24;101267.66;;;12.01;32.16
8653;BME280;4364;52.426;9.424;2023-04-06T11:03:56;101267.91;;;11.95;32.91
8653;BME280;4364;52.426;9.424;2023-04-06T11:06:28;101265.44;;;12.19;32.96
8653;BME280;4364;52.426;9.424;2023-04-06T11:08:57;101261.34;;;12.42;32.56
8653;BME280;4364;52.426;9.424;2023-04-06T11:11:26;101256.94;;;12.56;31.90
8653;BME280;4364;52.426;9.424;2023-04-06T11:13:55;101258.06;;;12.45;31.62
8653;BME280;4364;52.426;9.424;2023-04-06T11:16:26;101244.47;;;12.30;31.34
8653;BME280;4364;52.426;9.424;2023-04-06T11:21:38;101248.47;;;12.63;31.37
8653;BME280;4364;52.426;9.424;2023-04-06T11:24:08;101246.03;;;12.62;31.59
8653;BME280;4364;52.426;9.424;2023-04-06T11:29:12;101250.63;;;12.61;33.32
8653;BME280;4364;52.426;9.424;2023-04-06T11:31:52;101244.31;;;12.76;31.57
8653;BME280;4364;52.426;9.424;2023-04-06T11:34:23;101225.78;;;12.73;32.60
8653;BME280;4364;52.426;9.424;2023-04-06T11:37:01;101227.41;;;12.74;32.91
8653;BME280;4364;52.426;9.424;2023-04-06T11:39:29;101227.50;;;12.53;32.18
8653;BME280;4364;52.426;9.424;2023-04-06T11:42:02;101222.97;;;12.93;31.48
8653;BME280;4364;52.426;9.424;2023-04-06T11:44:32;101224.97;;;12.72;32.15
8653;BME280;4364;52.426;9.424;2023-04-06T11:47:00;101218.31;;;12.99;31.71
8653;BME280;4364;52.426;9.424;2023-04-06T11:49:28;101209.41;;;12.78;31.17
8653;BME280;4364;52.426;9.424;2023-04-06T11:51:56;101214.84;;;12.83;30.81
8653;BME280;4364;52.426;9.424;2023-04-06T11:54:34;101208.81;;;12.91;32.43
8653;BME280;4364;52.426;9.424;2023-04-06T11:57:01;101212.44;;;13.21;32.72
8653;BME280;4364;52.426;9.424;2023-04-06T11:59:29;101206.03;;;13.51;32.52
8653;BME280;4364;52.426;9.424;2023-04-06T12:01:57;101213.00;;;13.23;31.68
8653;BME280;4364;52.426;9.424;2023-04-06T12:04:24;101205.66;;;13.19;31.05
8653;BME280;4364;52.426;9.424;2023-04-06T12:06:50;101204.78;;;13.28;31.54
8653;BME280;4364;52.426;9.424;2023-04-06T12:09:17;101192.06;;;13.08;31.82
8653;BME280;4364;52.426;9.424;2023-04-06T12:11:46;101204.53;;;13.25;32.07
8653;BME280;4364;52.426;9.424;2023-04-06T12:14:13;101196.22;;;13.45;32.01
8653;BME280;4364;52.426;9.424;2023-04-06T12:16:40;101200.84;;;13.50;31.78
8653;BME280;4364;52.426;9.424;2023-04-06T12:19:07;101185.75;;;13.58;31.98
8653;BME280;4364;52.426;9.424;2023-04-06T12:21:34;101192.47;;;13.70;31.81
8653;BME280;4364;52.426;9.424;2023-04-06T12:24:04;101192.00;;;13.63;31.03
8653;BME280;4364;52.426;9.424;2023-04-06T12:26:31;101198.03;;;13.60;31.86
8653;BME280;4364;52.426;9.424;2023-04-06T12:28:58;101190.78;;;13.75;30.64
8653;BME280;4364;52.426;9.424;2023-04-06T12:31:32;101191.25;;;13.52;30.20
8653;BME280;4364;52.426;9.424;2023-04-06T12:33:59;101195.69;;;13.78;30.91
8653;BME280;4364;52.426;9.424;2023-04-06T12:36:25;101182.56;;;13.80;31.26
8653;BME280;4364;52.426;9.424;2023-04-06T12:38:52;101186.78;;;13.67;31.18
8653;BME280;4364;52.426;9.424;2023-04-06T12:41:19;101185.69;;;13.63;30.58
8653;BME280;4364;52.426;9.424;2023-04-06T12:43:46;101184.81;;;13.73;30.25
8653;BME280;4364;52.426;9.424;2023-04-06T12:46:12;101181.41;;;13.57;31.49
8653;BME280;4364;52.426;9.424;2023-04-06T12:48:40;101178.94;;;13.55;31.20
8653;BME280;4364;52.426;9.424;2023-04-06T12:51:07;101179.38;;;13.67;30.45
8653;BME280;4364;52.426;9.424;2023-04-06T12:53:34;101187.63;;;13.62;30.97
8653;BME280;4364;52.426;9.424;2023-04-06T12:56:02;101175.50;;;13.74;30.86
8653;BME280;4364;52.426;9.424;2023-04-06T12:58:37;101173.31;;;13.76;31.19
8653;BME280;4364;52.426;9.424;2023-04-06T13:01:06;101166.09;;;13.90;30.09
8653;BME280;4364;52.426;9.424;2023-04-06T13:03:33;101176.47;;;13.88;30.57
8653;BME280;4364;52.426;9.424;2023-04-06T13:06:01;101164.72;;;13.87;30.68
8653;BME280;4364;52.426;9.424;2023-04-06T13:08:28;101161.81;;;13.79;30.54
8653;BME280;4364;52.426;9.424;2023-04-06T13:10:54;101164.00;;;13.77;30.01
8653;BME280;4364;52.426;9.424;2023-04-06T13:13:26;101157.31;;;13.88;30.99
8653;BME280;4364;52.426;9.424;2023-04-06T13:16:02;101165.00;;;14.15;31.28
8653;BME280;4364;52.426;9.424;2023-04-06T13:18:30;101156.03;;;14.09;30.46
8653;BME280;4364;52.426;9.424;2023-04-06T13:20:58;101159.81;;;14.14;30.18
8653;BME280;4364;52.426;9.424;2023-04-06T13:23:26;101152.34;;;13.95;29.69
8653;BME280;4364;52.426;9.424;2023-04-06T13:26:02;101149.75;;;14.09;29.23
8653;BME280;4364;52.426;9.424;2023-04-06T13:28:30;101139.38;;;13.82;29.71
8653;BME280;4364;52.426;9.424;2023-04-06T13:30:59;101140.78;;;14.03;29.11
8653;BME280;4364;52.426;9.424;2023-04-06T13:33:28;101138.13;;;14.22;28.96